Dieringer, Washington
Current Conditions -  °F | °C
As of 9:58 AM on Monday 24 Nov 2014 (Local Time) from KTCM Reporting Station
Few Clouds Few Clouds  
Wind Chill:   Ceiling: Unl
Heat Index:   Visibility: 10mi
Dew Point:   Wind: 3mph
Humidity: 99%   Direction: 110°ESE
Pressure: 30.33"   Gusts: NA
Location:  47.2018°N, 122.233°W
Report Text: KTCM 241758Z AUTO 11003KT 10SM FEW039 04/04 A3033 RMK AO2 SLP277 T00440043 10044 20000 55007 $
Loading
Personal Weather Stations






























Interactive Weather Map New forecast layout! Learn more

10-Day Weather Forecast

Advertisements
Track Severe Weather on mobile